Tiffin, Ohio
Current Conditions -  °F | °C
As of 1:53 AM on Monday 24 Nov 2014 (Local Time) from KFDY Reporting Station
Light Rain Light Rain  
Wind Chill: 57°   Ceiling: 1500
Heat Index: 57°   Visibility: 9mi
Dew Point: 54°   Wind: 23mph
Humidity: 89%   Direction: 170°S
Pressure: 29.14"   Gusts: NA
Location:  41.12°N, 83.18°W
Report Text: KFDY 240653Z AUTO 17020KT 9SM -RA FEW009 OVC015 14/12 A2914 RMK AO2 PK WND 16033/0556 RAB08 SLP862 P0001 T01390122
Loading
Personal Weather Stations






























Interactive Weather Map New forecast layout! Learn more

10-Day Weather Forecast

Advertisements
Track Severe Weather on mobile